createdAt,value
2018-07-08T00:01:23.847Z,13.60
2018-07-08T00:03:52.512Z,13.90
2018-07-08T00:06:21.070Z,14.10
2018-07-08T00:08:49.687Z,13.20
2018-07-08T00:11:18.246Z,12.30
2018-07-08T00:13:46.831Z,11.73
2018-07-08T00:16:15.404Z,13.70
2018-07-08T00:18:44.109Z,12.30
2018-07-08T00:21:12.675Z,13.07
2018-07-08T00:23:41.236Z,14.70
2018-07-08T00:26:09.804Z,13.57
2018-07-08T00:28:38.332Z,11.47
2018-07-08T00:31:07.339Z,11.50
2018-07-08T00:33:35.899Z,12.77
2018-07-08T00:36:04.505Z,11.73
2018-07-08T00:38:33.277Z,12.03
2018-07-08T00:41:01.868Z,12.13
2018-07-08T00:43:30.405Z,12.03
2018-07-08T00:45:58.601Z,12.33
2018-07-08T00:48:27.220Z,12.83
2018-07-08T00:50:55.736Z,12.30
2018-07-08T00:53:24.292Z,12.10
2018-07-08T00:55:52.904Z,12.03
2018-07-08T00:58:21.438Z,12.00
2018-07-08T01:00:50.063Z,11.90
2018-07-08T01:03:18.637Z,11.67
2018-07-08T01:05:47.161Z,11.97
2018-07-08T01:08:15.769Z,10.90
2018-07-08T01:10:44.343Z,10.80
2018-07-08T01:13:12.972Z,10.33
2018-07-08T01:15:41.468Z,9.50
2018-07-08T01:18:10.127Z,10.13
2018-07-08T01:20:38.800Z,10.47
2018-07-08T01:23:07.531Z,9.03
2018-07-08T01:25:47.162Z,9.27
2018-07-08T01:28:15.680Z,8.93
2018-07-08T01:30:44.172Z,8.40
2018-07-08T01:33:12.695Z,8.20
2018-07-08T01:35:41.305Z,8.20
2018-07-08T01:38:09.780Z,7.93
2018-07-08T01:40:37.969Z,7.30
2018-07-08T01:43:06.497Z,8.60
2018-07-08T01:45:35.045Z,7.97
2018-07-08T01:48:03.676Z,7.83
2018-07-08T01:50:32.202Z,7.17
2018-07-08T01:53:00.694Z,7.63
2018-07-08T01:55:29.214Z,7.30
2018-07-08T01:57:57.778Z,7.47
2018-07-08T02:00:26.645Z,7.60
2018-07-08T02:02:55.259Z,7.20
2018-07-08T02:05:23.803Z,7.10
2018-07-08T02:07:52.857Z,7.50
2018-07-08T02:10:21.410Z,6.37
2018-07-08T02:12:50.232Z,6.85
2018-07-08T02:15:18.850Z,6.50
2018-07-08T02:17:47.422Z,6.50
2018-07-08T02:20:15.995Z,7.30
2018-07-08T02:22:44.768Z,6.17
2018-07-08T02:30:09.289Z,6.00
2018-07-08T02:32:38.875Z,7.20
2018-07-08T02:35:07.474Z,6.40
2018-07-08T02:37:36.060Z,6.75
2018-07-08T02:40:05.016Z,7.00
2018-07-08T02:42:33.584Z,6.50
2018-07-08T02:45:02.164Z,6.30
2018-07-08T02:47:30.787Z,6.80
2018-07-08T02:50:00.047Z,6.45
2018-07-08T02:52:28.678Z,6.53
2018-07-08T02:54:56.869Z,6.73
2018-07-08T02:57:25.364Z,6.80
2018-07-08T02:59:53.999Z,6.63
2018-07-08T03:02:22.646Z,6.17
2018-07-08T03:04:51.223Z,6.70
2018-07-08T03:07:19.744Z,6.30
2018-07-08T03:09:48.347Z,6.28
2018-07-08T03:12:16.878Z,6.12
2018-07-08T03:14:45.403Z,6.03
2018-07-08T03:17:13.892Z,5.67
2018-07-08T03:19:42.563Z,6.10
2018-07-08T03:22:12.121Z,6.00
2018-07-08T03:24:40.761Z,6.10
2018-07-08T03:27:09.416Z,5.80
2018-07-08T03:29:37.972Z,6.00
2018-07-08T03:32:06.627Z,5.80
2018-07-08T03:34:35.154Z,5.70
2018-07-08T03:37:03.741Z,5.85
2018-07-08T03:39:32.287Z,5.45
2018-07-08T03:42:00.946Z,6.35
2018-07-08T03:44:29.543Z,6.25
2018-07-08T03:46:58.451Z,6.60
2018-07-08T03:49:26.992Z,6.00
2018-07-08T03:51:55.543Z,6.17
2018-07-08T03:54:28.867Z,5.92
2018-07-08T03:56:57.400Z,5.70
2018-07-08T03:59:26.098Z,6.10
2018-07-08T04:01:54.931Z,6.47
2018-07-08T04:04:23.498Z,5.70
2018-07-08T04:06:52.052Z,6.40
2018-07-08T04:09:20.975Z,5.42
2018-07-08T04:11:49.873Z,6.20
2018-07-08T04:14:18.427Z,5.87
2018-07-08T04:16:47.661Z,6.42
2018-07-08T04:19:16.554Z,6.10
2018-07-08T04:21:44.718Z,6.17
2018-07-08T04:24:13.507Z,6.90
2018-07-08T04:26:42.014Z,6.33
2018-07-08T04:29:10.574Z,6.60
2018-07-08T04:31:39.086Z,6.40
2018-07-08T04:36:35.361Z,6.50
2018-07-08T04:39:04.996Z,6.35
2018-07-08T04:41:33.612Z,7.25
2018-07-08T04:44:02.483Z,6.83
2018-07-08T04:46:31.254Z,7.60
2018-07-08T04:48:59.738Z,7.90
2018-07-08T04:51:28.253Z,7.40
2018-07-08T04:53:56.743Z,7.87
2018-07-08T04:56:25.486Z,7.55
2018-07-08T04:58:54.018Z,7.22
2018-07-08T05:01:22.580Z,7.17
2018-07-08T05:03:51.171Z,7.17
2018-07-08T05:06:19.789Z,7.45
2018-07-08T05:08:48.264Z,6.80
2018-07-08T05:11:16.887Z,7.00
2018-07-08T05:13:45.394Z,7.20
2018-07-08T05:16:13.901Z,7.53
2018-07-08T05:18:42.450Z,6.90
2018-07-08T05:21:11.094Z,7.50
2018-07-08T05:23:39.691Z,7.50
2018-07-08T05:26:08.318Z,7.47
2018-07-08T05:28:36.840Z,7.08
2018-07-08T05:31:05.379Z,7.30
2018-07-08T05:33:34.082Z,6.80
2018-07-08T05:36:02.635Z,7.67
2018-07-08T05:38:31.204Z,7.40
2018-07-08T05:40:59.682Z,7.72
2018-07-08T05:43:27.822Z,7.33
2018-07-08T05:45:56.448Z,8.08
2018-07-08T05:48:25.127Z,7.85
2018-07-08T05:50:53.766Z,7.67
2018-07-08T05:53:22.379Z,7.80
2018-07-08T05:55:50.963Z,7.42
2018-07-08T05:58:19.643Z,7.40
2018-07-08T06:00:48.214Z,7.25
2018-07-08T06:03:16.975Z,6.95
2018-07-08T06:05:45.629Z,7.10
2018-07-08T06:08:14.213Z,6.62
2018-07-08T06:10:42.777Z,7.20
2018-07-08T06:13:11.314Z,6.78
2018-07-08T06:15:39.912Z,6.60
2018-07-08T06:18:08.618Z,6.12
2018-07-08T06:20:37.428Z,6.37
2018-07-08T06:23:05.966Z,6.60
2018-07-08T06:25:34.610Z,6.97
2018-07-08T06:28:03.199Z,6.60
2018-07-08T06:30:31.724Z,6.78
2018-07-08T06:33:00.253Z,6.80
2018-07-08T06:35:28.861Z,6.50
2018-07-08T06:37:57.821Z,4.37
2018-07-08T06:40:26.332Z,5.40
2018-07-08T06:42:54.943Z,5.17
2018-07-08T06:45:23.617Z,5.83
2018-07-08T06:47:52.151Z,5.27
2018-07-08T06:50:20.696Z,5.40
2018-07-08T06:52:49.277Z,6.00
2018-07-08T06:55:17.803Z,5.22
2018-07-08T06:57:46.382Z,5.25
2018-07-08T07:00:14.911Z,5.92
2018-07-08T07:02:43.788Z,5.50
2018-07-08T07:05:12.331Z,5.37
2018-07-08T07:07:41.050Z,4.92
2018-07-08T07:10:09.767Z,4.75
2018-07-08T07:12:38.427Z,4.78
2018-07-08T07:15:07.101Z,4.90
2018-07-08T07:17:35.761Z,4.30
2018-07-08T07:20:04.701Z,4.45
2018-07-08T07:22:33.276Z,4.60
2018-07-08T07:25:01.981Z,3.90
2018-07-08T07:27:30.532Z,4.30
2018-07-08T07:29:59.102Z,4.50
2018-07-08T07:37:23.328Z,4.20
2018-07-08T07:39:51.841Z,4.70
2018-07-08T07:42:20.504Z,4.60
2018-07-08T07:44:49.029Z,4.70
2018-07-08T07:47:17.650Z,5.00
2018-07-08T07:49:46.258Z,4.50
2018-07-08T07:52:14.912Z,5.00
2018-07-08T07:54:44.332Z,4.75
2018-07-08T07:57:13.835Z,4.25
2018-07-08T07:59:42.705Z,4.25
2018-07-08T08:02:11.333Z,3.70
2018-07-08T08:04:39.888Z,4.13
2018-07-08T08:07:08.576Z,4.45
2018-07-08T08:09:37.158Z,4.08
2018-07-08T08:12:05.719Z,3.90
2018-07-08T08:14:34.228Z,3.65
2018-07-08T17:25:17.935Z,1.52
2018-07-08T17:27:46.668Z,1.53
2018-07-08T17:30:16.023Z,1.27
2018-07-08T17:32:45.036Z,1.50
2018-07-08T17:35:13.875Z,1.67
2018-07-08T17:37:42.613Z,1.50
2018-07-08T17:40:11.422Z,1.63
2018-07-08T17:45:08.223Z,1.43
2018-07-08T17:47:38.387Z,1.70
2018-07-08T17:50:06.808Z,1.80
2018-07-08T17:52:35.500Z,1.60
2018-07-08T17:55:04.313Z,1.63
2018-07-08T17:57:33.117Z,1.67
2018-07-08T18:00:02.791Z,1.60
2018-07-08T18:02:32.916Z,1.50
2018-07-08T18:05:01.906Z,1.50
2018-07-08T18:07:31.025Z,1.40
2018-07-08T18:10:00.051Z,1.60
2018-07-08T18:12:28.815Z,1.50
2018-07-08T18:14:57.432Z,1.53
2018-07-08T18:17:26.168Z,1.80
2018-07-08T18:19:54.800Z,1.70
2018-07-08T18:22:23.651Z,1.30
2018-07-08T18:24:52.415Z,1.80
2018-07-08T18:27:21.092Z,1.50
2018-07-08T18:29:49.849Z,1.43
2018-07-08T18:32:18.553Z,1.50
2018-07-08T18:34:47.483Z,1.50
2018-07-08T18:37:16.260Z,1.50
2018-07-08T18:39:45.497Z,1.60
2018-07-08T18:42:14.292Z,1.30
2018-07-08T18:44:43.191Z,2.03
2018-07-08T18:47:12.177Z,1.80
2018-07-08T18:49:40.965Z,1.50
2018-07-08T18:52:10.393Z,1.43
2018-07-08T18:54:39.240Z,1.57
2018-07-08T18:57:08.083Z,1.33
2018-07-08T18:59:36.776Z,1.57
2018-07-08T19:02:05.564Z,1.60
2018-07-08T19:04:34.291Z,1.73
2018-07-08T19:07:03.176Z,1.30
2018-07-08T19:09:31.837Z,1.83
2018-07-08T19:12:00.546Z,2.83
2018-07-08T19:14:29.197Z,1.67
2018-07-08T19:16:58.005Z,1.60
2018-07-08T19:19:26.672Z,1.73
2018-07-08T19:21:55.394Z,1.50
2018-07-08T19:24:24.252Z,1.87
2018-07-08T19:26:53.055Z,2.67
2018-07-08T19:29:21.790Z,1.67
2018-07-08T19:31:50.485Z,1.90
2018-07-08T19:34:19.424Z,1.50
2018-07-08T19:36:48.364Z,1.73
2018-07-08T19:39:17.052Z,1.60
2018-07-08T19:41:46.106Z,1.60
2018-07-08T19:44:14.773Z,2.17
2018-07-08T19:46:43.683Z,2.03
2018-07-08T19:49:12.401Z,1.93
2018-07-08T19:51:41.148Z,1.83
2018-07-08T19:54:09.985Z,2.10
2018-07-08T19:56:38.834Z,2.07
2018-07-08T19:59:07.512Z,1.63
2018-07-08T20:01:36.331Z,2.17
2018-07-08T20:04:05.382Z,1.70
2018-07-08T20:06:34.141Z,2.07
2018-07-08T20:09:03.028Z,1.87
2018-07-08T20:11:31.811Z,3.93
2018-07-08T20:14:00.635Z,1.90
2018-07-08T20:16:29.582Z,1.80
2018-07-08T20:18:58.230Z,1.70
2018-07-08T20:21:27.158Z,2.30
2018-07-08T20:23:55.570Z,3.17
2018-07-08T20:26:24.315Z,2.33
2018-07-08T20:28:53.131Z,2.40
2018-07-08T20:31:21.863Z,2.27
2018-07-08T20:33:50.700Z,2.10
2018-07-08T20:36:19.368Z,2.20
2018-07-08T20:38:48.162Z,1.83
2018-07-08T20:41:17.004Z,2.47
2018-07-08T20:43:45.721Z,2.10
2018-07-08T20:46:14.649Z,2.27
2018-07-08T20:48:43.433Z,2.60
2018-07-08T20:51:12.173Z,2.57
2018-07-08T20:53:41.201Z,2.50
2018-07-08T20:56:09.912Z,2.93
2018-07-08T20:58:38.633Z,2.50
2018-07-08T21:01:07.668Z,2.17
2018-07-08T21:03:36.337Z,2.90
2018-07-08T21:06:05.035Z,2.40
2018-07-08T21:08:33.308Z,2.27
2018-07-08T21:11:02.033Z,2.20
2018-07-08T21:13:30.668Z,2.43
2018-07-08T21:15:59.446Z,2.50
2018-07-08T21:18:28.199Z,2.53
2018-07-08T21:20:56.960Z,2.60
2018-07-08T21:23:25.630Z,2.43
2018-07-08T21:25:54.321Z,2.33
2018-07-08T21:28:23.043Z,2.80
2018-07-08T21:30:51.863Z,2.17
2018-07-08T21:33:20.701Z,2.37
2018-07-08T21:35:49.497Z,2.80
2018-07-08T21:38:18.170Z,3.43
2018-07-08T21:40:46.774Z,2.53
2018-07-08T21:43:15.496Z,2.60
2018-07-08T21:45:44.231Z,3.23
2018-07-08T21:48:12.813Z,3.00
2018-07-08T21:50:41.413Z,2.20
2018-07-08T21:53:10.083Z,2.87
2018-07-08T21:55:38.722Z,3.03
2018-07-08T21:58:07.525Z,2.70
2018-07-08T22:00:36.347Z,2.50
2018-07-08T22:03:05.302Z,2.90
2018-07-08T22:05:33.872Z,2.90
2018-07-08T22:08:04.649Z,2.80
2018-07-08T22:10:34.065Z,2.73
2018-07-08T22:13:03.580Z,2.57
2018-07-08T22:15:32.221Z,2.53
2018-07-08T22:18:00.859Z,3.30
2018-07-08T22:20:29.714Z,2.23
2018-07-08T22:22:58.442Z,2.37
2018-07-08T22:25:27.232Z,2.53
2018-07-08T22:27:55.899Z,2.47
2018-07-08T22:30:24.513Z,2.50
2018-07-08T22:32:53.173Z,2.80
2018-07-08T22:35:21.872Z,2.73
2018-07-08T22:37:50.545Z,2.47
2018-07-08T22:40:19.400Z,2.93
2018-07-08T22:42:48.156Z,2.27
2018-07-08T22:45:16.843Z,2.60
2018-07-08T22:47:45.487Z,2.60
2018-07-08T22:50:14.080Z,3.10
2018-07-08T22:52:42.741Z,2.80
2018-07-08T22:55:11.433Z,2.70
2018-07-08T22:57:39.950Z,2.97
2018-07-08T23:00:19.838Z,2.63
2018-07-08T23:02:48.974Z,2.73
2018-07-08T23:05:17.786Z,2.60
2018-07-08T23:07:46.067Z,3.17
2018-07-08T23:10:14.641Z,2.60
2018-07-08T23:12:43.175Z,2.80
2018-07-08T23:15:11.744Z,2.93
2018-07-08T23:17:44.586Z,2.57
2018-07-08T23:20:13.283Z,2.43
2018-07-08T23:22:52.902Z,2.70
2018-07-08T23:25:21.404Z,3.27
2018-07-08T23:27:49.960Z,3.00
2018-07-08T23:30:18.499Z,2.17
2018-07-08T23:32:47.134Z,2.83
2018-07-08T23:35:15.725Z,2.63
2018-07-08T23:37:44.443Z,3.23
2018-07-08T23:40:12.970Z,2.67
2018-07-08T23:42:41.479Z,2.80
2018-07-08T23:45:10.059Z,3.20
2018-07-08T23:47:38.588Z,3.53
2018-07-08T23:50:07.170Z,4.50
2018-07-08T23:52:35.776Z,4.13
2018-07-08T23:55:04.440Z,4.00
2018-07-08T23:57:32.993Z,5.00
